sensor_id;sensor_type;location;lat;lon;timestamp;pressure;altitude;pressure_sealevel;temperature;humidity
18275;BME280;19470;49.322;7.218;2024-01-15T00:00:46;97850.75;;;1.25;81.32
18275;BME280;19470;49.322;7.218;2024-01-15T00:03:13;97850.34;;;0.95;82.89
18275;BME280;19470;49.322;7.218;2024-01-15T00:05:39;97848.75;;;0.87;84.34
18275;BME280;19470;49.322;7.218;2024-01-15T00:08:06;97857.16;;;0.76;84.50
18275;BME280;19470;49.322;7.218;2024-01-15T00:10:32;97845.88;;;1.62;82.34
18275;BME280;19470;49.322;7.218;2024-01-15T00:13:00;97846.00;;;1.93;79.60
18275;BME280;19470;49.322;7.218;2024-01-15T00:15:27;97846.84;;;2.25;76.82
18275;BME280;19470;49.322;7.218;2024-01-15T00:17:55;97842.72;;;1.07;82.60
18275;BME280;19470;49.322;7.218;2024-01-15T00:20:22;97838.88;;;1.49;81.72
18275;BME280;19470;49.322;7.218;2024-01-15T00:22:48;97837.06;;;1.56;80.27
18275;BME280;19470;49.322;7.218;2024-01-15T00:25:15;97838.31;;;1.00;83.28
18275;BME280;19470;49.322;7.218;2024-01-15T00:27:41;97832.31;;;0.87;86.25
18275;BME280;19470;49.322;7.218;2024-01-15T00:30:10;97820.22;;;1.39;81.98
18275;BME280;19470;49.322;7.218;2024-01-15T00:32:37;97825.81;;;1.49;80.69
18275;BME280;19470;49.322;7.218;2024-01-15T00:35:04;97817.03;;;1.30;81.76
18275;BME280;19470;49.322;7.218;2024-01-15T00:37:31;97809.97;;;2.09;78.92
18275;BME280;19470;49.322;7.218;2024-01-15T00:39:57;97807.75;;;2.05;77.62
18275;BME280;19470;49.322;7.218;2024-01-15T00:42:24;97805.53;;;2.09;78.28
18275;BME280;19470;49.322;7.218;2024-01-15T00:44:50;97805.69;;;1.76;79.80
18275;BME280;19470;49.322;7.218;2024-01-15T00:47:19;97796.69;;;2.10;77.00
18275;BME280;19470;49.322;7.218;2024-01-15T00:49:45;97797.50;;;2.11;77.36
18275;BME280;19470;49.322;7.218;2024-01-15T00:52:12;97793.44;;;2.21;78.47
18275;BME280;19470;49.322;7.218;2024-01-15T00:54:38;97801.16;;;1.51;80.91
18275;BME280;19470;49.322;7.218;2024-01-15T00:57:05;97797.44;;;1.79;81.67
18275;BME280;19470;49.322;7.218;2024-01-15T00:59:31;97800.94;;;2.43;77.33
18275;BME280;19470;49.322;7.218;2024-01-15T01:01:58;97806.56;;;2.96;74.96
18275;BME280;19470;49.322;7.218;2024-01-15T01:04:26;97811.09;;;2.26;76.78
18275;BME280;19470;49.322;7.218;2024-01-15T01:06:52;97805.78;;;1.36;81.61
18275;BME280;19470;49.322;7.218;2024-01-15T01:09:19;97805.81;;;1.94;81.14
18275;BME280;19470;49.322;7.218;2024-01-15T01:11:45;97800.94;;;2.43;79.18
18275;BME280;19470;49.322;7.218;2024-01-15T01:14:12;97799.63;;;1.82;80.89
18275;BME280;19470;49.322;7.218;2024-01-15T01:16:38;97798.44;;;2.23;79.11
18275;BME280;19470;49.322;7.218;2024-01-15T01:19:05;97810.31;;;2.19;77.38
18275;BME280;19470;49.322;7.218;2024-01-15T01:21:33;97803.59;;;2.36;79.16
18275;BME280;19470;49.322;7.218;2024-01-15T01:24:00;97804.13;;;1.55;79.99
18275;BME280;19470;49.322;7.218;2024-01-15T01:26:26;97800.34;;;1.51;82.75
18275;BME280;19470;49.322;7.218;2024-01-15T01:28:53;97802.78;;;1.26;84.33
18275;BME280;19470;49.322;7.218;2024-01-15T01:31:19;97808.28;;;2.21;80.20
18275;BME280;19470;49.322;7.218;2024-01-15T01:33:46;97805.50;;;1.64;82.10
18275;BME280;19470;49.322;7.218;2024-01-15T01:36:12;97793.84;;;2.18;80.03
18275;BME280;19470;49.322;7.218;2024-01-15T01:38:40;97795.19;;;1.89;81.73
18275;BME280;19470;49.322;7.218;2024-01-15T01:41:07;97800.63;;;2.58;77.91
18275;BME280;19470;49.322;7.218;2024-01-15T01:43:34;97795.47;;;2.44;77.30
18275;BME280;19470;49.322;7.218;2024-01-15T01:46:01;97797.50;;;2.74;77.35
18275;BME280;19470;49.322;7.218;2024-01-15T01:48:29;97791.09;;;2.45;77.06
18275;BME280;19470;49.322;7.218;2024-01-15T01:50:58;97799.97;;;1.92;79.39
18275;BME280;19470;49.322;7.218;2024-01-15T01:53:26;97787.78;;;2.81;76.82
18275;BME280;19470;49.322;7.218;2024-01-15T01:55:55;97788.34;;;2.33;79.03
18275;BME280;19470;49.322;7.218;2024-01-15T01:58:23;97794.75;;;2.69;76.54
18275;BME280;19470;49.322;7.218;2024-01-15T02:00:50;97788.78;;;2.23;79.08
18275;BME280;19470;49.322;7.218;2024-01-15T02:03:17;97784.13;;;2.32;78.99
18275;BME280;19470;49.322;7.218;2024-01-15T02:05:43;97795.75;;;1.46;80.54
18275;BME280;19470;49.322;7.218;2024-01-15T02:08:10;97787.06;;;2.42;77.83
18275;BME280;19470;49.322;7.218;2024-01-15T02:10:37;97779.84;;;2.69;77.93
18275;BME280;19470;49.322;7.218;2024-01-15T02:13:05;97775.38;;;3.20;74.59
18275;BME280;19470;49.322;7.218;2024-01-15T02:15:31;97771.06;;;2.64;76.27
18275;BME280;19470;49.322;7.218;2024-01-15T02:17:59;97774.53;;;3.44;73.94
18275;BME280;19470;49.322;7.218;2024-01-15T02:20:26;97761.41;;;3.81;71.79
18275;BME280;19470;49.322;7.218;2024-01-15T02:22:53;97765.38;;;3.35;72.93
18275;BME280;19470;49.322;7.218;2024-01-15T02:25:21;97772.34;;;3.23;74.03
18275;BME280;19470;49.322;7.218;2024-01-15T02:27:47;97762.09;;;3.21;73.95
18275;BME280;19470;49.322;7.218;2024-01-15T02:30:14;97759.63;;;3.63;72.60
18275;BME280;19470;49.322;7.218;2024-01-15T02:32:41;97758.84;;;3.44;72.61
18275;BME280;19470;49.322;7.218;2024-01-15T02:35:08;97753.88;;;3.73;71.50
18275;BME280;19470;49.322;7.218;2024-01-15T02:37:35;97749.03;;;2.96;75.65
18275;BME280;19470;49.322;7.218;2024-01-15T02:40:02;97750.72;;;3.34;73.29
18275;BME280;19470;49.322;7.218;2024-01-15T02:42:30;97753.22;;;3.22;73.99
18275;BME280;19470;49.322;7.218;2024-01-15T02:44:56;97741.09;;;3.28;73.83
18275;BME280;19470;49.322;7.218;2024-01-15T02:47:23;97742.25;;;3.32;73.91
18275;BME280;19470;49.322;7.218;2024-01-15T02:49:50;97751.13;;;3.68;73.01
18275;BME280;19470;49.322;7.218;2024-01-15T02:52:17;97756.13;;;3.88;71.43
18275;BME280;19470;49.322;7.218;2024-01-15T02:54:44;97758.19;;;3.49;72.80
18275;BME280;19470;49.322;7.218;2024-01-15T02:57:10;97753.75;;;3.68;73.21
18275;BME280;19470;49.322;7.218;2024-01-15T02:59:38;97751.38;;;3.96;71.04
18275;BME280;19470;49.322;7.218;2024-01-15T03:02:04;97744.63;;;3.70;72.76
18275;BME280;19470;49.322;7.218;2024-01-15T03:04:31;97762.66;;;3.23;73.78
18275;BME280;19470;49.322;7.218;2024-01-15T03:06:57;97761.97;;;2.91;76.59
18275;BME280;19470;49.322;7.218;2024-01-15T03:09:24;97752.38;;;2.85;77.24
18275;BME280;19470;49.322;7.218;2024-01-15T03:11:50;97759.63;;;2.83;76.65
18275;BME280;19470;49.322;7.218;2024-01-15T03:14:17;97744.72;;;3.64;74.66
18275;BME280;19470;49.322;7.218;2024-01-15T03:16:45;97751.03;;;3.38;73.68
18275;BME280;19470;49.322;7.218;2024-01-15T03:19:11;97747.25;;;3.15;76.71
18275;BME280;19470;49.322;7.218;2024-01-15T03:21:38;97743.78;;;3.40;75.33
18275;BME280;19470;49.322;7.218;2024-01-15T03:24:04;97738.44;;;3.83;73.30
18275;BME280;19470;49.322;7.218;2024-01-15T03:26:31;97735.53;;;3.91;72.10
18275;BME280;19470;49.322;7.218;2024-01-15T03:28:57;97740.38;;;3.21;74.30
18275;BME280;19470;49.322;7.218;2024-01-15T03:31:24;97734.34;;;3.20;77.48
18275;BME280;19470;49.322;7.218;2024-01-15T03:33:52;97724.81;;;3.44;75.66
18275;BME280;19470;49.322;7.218;2024-01-15T03:36:27;97727.19;;;2.09;81.73
18275;BME280;19470;49.322;7.218;2024-01-15T03:38:54;97747.34;;;2.59;79.32
18275;BME280;19470;49.322;7.218;2024-01-15T03:41:20;97738.91;;;3.06;77.32
18275;BME280;19470;49.322;7.218;2024-01-15T03:43:47;97735.25;;;3.07;77.61
18275;BME280;19470;49.322;7.218;2024-01-15T03:46:13;97743.84;;;3.15;78.37
18275;BME280;19470;49.322;7.218;2024-01-15T03:48:40;97740.81;;;3.54;75.27
18275;BME280;19470;49.322;7.218;2024-01-15T03:51:08;97724.59;;;3.94;74.22
18275;BME280;19470;49.322;7.218;2024-01-15T03:53:34;97719.72;;;3.98;72.80
18275;BME280;19470;49.322;7.218;2024-01-15T03:56:01;97713.47;;;3.32;75.19
18275;BME280;19470;49.322;7.218;2024-01-15T03:58:27;97711.13;;;2.87;78.32
18275;BME280;19470;49.322;7.218;2024-01-15T04:00:53;97707.88;;;3.95;73.81
18275;BME280;19470;49.322;7.218;2024-01-15T04:03:20;97701.09;;;4.18;72.29
18275;BME280;19470;49.322;7.218;2024-01-15T04:05:46;97714.03;;;2.97;77.93
18275;BME280;19470;49.322;7.218;2024-01-15T04:08:14;97714.78;;;3.59;74.53
18275;BME280;19470;49.322;7.218;2024-01-15T04:10:41;97703.53;;;3.71;74.79
18275;BME280;19470;49.322;7.218;2024-01-15T04:13:07;97695.09;;;3.87;73.31
18275;BME280;19470;49.322;7.218;2024-01-15T04:15:34;97686.22;;;4.00;72.48
18275;BME280;19470;49.322;7.218;2024-01-15T04:18:02;97692.34;;;4.35;71.81
18275;BME280;19470;49.322;7.218;2024-01-15T04:20:29;97685.53;;;4.46;70.99
18275;BME280;19470;49.322;7.218;2024-01-15T04:22:55;97683.56;;;4.30;71.79
18275;BME280;19470;49.322;7.218;2024-01-15T04:25:23;97683.03;;;4.51;71.56
18275;BME280;19470;49.322;7.218;2024-01-15T04:27:49;97671.44;;;4.71;70.54
18275;BME280;19470;49.322;7.218;2024-01-15T04:30:16;97677.00;;;4.86;69.62
18275;BME280;19470;49.322;7.218;2024-01-15T04:32:43;97661.72;;;4.95;68.93
18275;BME280;19470;49.322;7.218;2024-01-15T04:35:09;97656.34;;;5.01;68.99
18275;BME280;19470;49.322;7.218;2024-01-15T04:37:36;97662.59;;;4.42;70.35
18275;BME280;19470;49.322;7.218;2024-01-15T04:40:02;97661.16;;;4.81;70.33
18275;BME280;19470;49.322;7.218;2024-01-15T04:42:31;97661.53;;;4.07;72.44
18275;BME280;19470;49.322;7.218;2024-01-15T04:44:57;97657.16;;;3.29;77.05
18275;BME280;19470;49.322;7.218;2024-01-15T04:47:24;97671.56;;;3.02;77.83
18275;BME280;19470;49.322;7.218;2024-01-15T04:49:50;97659.03;;;4.13;74.26
18275;BME280;19470;49.322;7.218;2024-01-15T04:52:17;97658.13;;;4.07;73.32
18275;BME280;19470;49.322;7.218;2024-01-15T04:54:43;97648.19;;;3.97;73.62
18275;BME280;19470;49.322;7.218;2024-01-15T04:57:10;97655.53;;;4.30;72.79
18275;BME280;19470;49.322;7.218;2024-01-15T04:59:38;97654.28;;;3.79;75.92
18275;BME280;19470;49.322;7.218;2024-01-15T05:02:05;97662.16;;;2.94;79.70
18275;BME280;19470;49.322;7.218;2024-01-15T05:04:31;97652.44;;;3.01;80.34
18275;BME280;19470;49.322;7.218;2024-01-15T05:06:58;97657.53;;;2.78;79.75
18275;BME280;19470;49.322;7.218;2024-01-15T05:09:25;97647.88;;;3.64;77.39
18275;BME280;19470;49.322;7.218;2024-01-15T05:11:51;97635.88;;;3.86;75.18
18275;BME280;19470;49.322;7.218;2024-01-15T05:14:18;97636.13;;;3.66;75.87
18275;BME280;19470;49.322;7.218;2024-01-15T05:16:48;97633.31;;;4.21;74.37
18275;BME280;19470;49.322;7.218;2024-01-15T05:19:15;97634.47;;;3.23;77.29
18275;BME280;19470;49.322;7.218;2024-01-15T05:21:41;97642.13;;;3.25;80.37
18275;BME280;19470;49.322;7.218;2024-01-15T05:24:08;97625.25;;;3.81;77.09
18275;BME280;19470;49.322;7.218;2024-01-15T05:26:35;97626.38;;;3.73;77.98
18275;BME280;19470;49.322;7.218;2024-01-15T05:29:01;97631.19;;;2.73;82.83
18275;BME280;19470;49.322;7.218;2024-01-15T05:31:28;97626.44;;;3.06;81.08
18275;BME280;19470;49.322;7.218;2024-01-15T05:33:56;97636.44;;;3.10;81.00
18275;BME280;19470;49.322;7.218;2024-01-15T05:36:22;97625.28;;;3.51;78.45
18275;BME280;19470;49.322;7.218;2024-01-15T05:38:49;97625.81;;;3.23;80.45
18275;BME280;19470;49.322;7.218;2024-01-15T05:41:16;97620.91;;;3.75;77.52
18275;BME280;19470;49.322;7.218;2024-01-15T05:43:42;97614.41;;;3.66;78.47
18275;BME280;19470;49.322;7.218;2024-01-15T05:46:09;97629.19;;;3.12;80.54
18275;BME280;19470;49.322;7.218;2024-01-15T05:48:35;97625.16;;;3.57;78.39
18275;BME280;19470;49.322;7.218;2024-01-15T05:51:03;97632.00;;;3.28;79.83
18275;BME280;19470;49.322;7.218;2024-01-15T05:53:30;97623.13;;;2.56;83.88
18275;BME280;19470;49.322;7.218;2024-01-15T05:55:56;97629.63;;;2.90;81.10
18275;BME280;19470;49.322;7.218;2024-01-15T05:58:23;97615.06;;;3.91;77.78
18275;BME280;19470;49.322;7.218;2024-01-15T06:00:49;97614.94;;;3.56;79.48
18275;BME280;19470;49.322;7.218;2024-01-15T06:03:16;97611.22;;;3.75;78.99
18275;BME280;19470;49.322;7.218;2024-01-15T06:05:42;97612.31;;;3.26;81.89
18275;BME280;19470;49.322;7.218;2024-01-15T06:08:10;97617.81;;;3.66;79.67
18275;BME280;19470;49.322;7.218;2024-01-15T06:10:37;97601.69;;;3.81;81.50
18275;BME280;19470;49.322;7.218;2024-01-15T06:13:03;97601.59;;;2.79;82.96
18275;BME280;19470;49.322;7.218;2024-01-15T06:15:30;97621.13;;;3.43;79.64
18275;BME280;19470;49.322;7.218;2024-01-15T06:17:56;97608.13;;;3.06;82.70
18275;BME280;19470;49.322;7.218;2024-01-15T06:20:24;97605.03;;;3.28;81.76
18275;BME280;19470;49.322;7.218;2024-01-15T06:22:50;97603.31;;;3.03;84.37
18275;BME280;19470;49.322;7.218;2024-01-15T06:25:18;97598.75;;;3.47;81.56
18275;BME280;19470;49.322;7.218;2024-01-15T06:27:45;97606.16;;;3.92;78.77
18275;BME280;19470;49.322;7.218;2024-01-15T06:30:12;97598.19;;;3.99;78.19
18275;BME280;19470;49.322;7.218;2024-01-15T06:32:38;97602.09;;;4.20;78.03
18275;BME280;19470;49.322;7.218;2024-01-15T06:35:06;97598.47;;;3.37;81.14
18275;BME280;19470;49.322;7.218;2024-01-15T06:37:32;97604.69;;;3.54;80.74
18275;BME280;19470;49.322;7.218;2024-01-15T06:39:59;97600.56;;;3.77;79.56
18275;BME280;19470;49.322;7.218;2024-01-15T06:42:26;97591.78;;;3.83;80.27
18275;BME280;19470;49.322;7.218;2024-01-15T06:44:53;97584.19;;;3.21;82.58
18275;BME280;19470;49.322;7.218;2024-01-15T06:47:19;97574.91;;;3.25;83.56
18275;BME280;19470;49.322;7.218;2024-01-15T06:49:46;97582.91;;;3.12;83.80
18275;BME280;19470;49.322;7.218;2024-01-15T06:52:34;97576.03;;;3.71;81.30
18275;BME280;19470;49.322;7.218;2024-01-15T06:55:00;97576.75;;;3.78;82.15
18275;BME280;19470;49.322;7.218;2024-01-15T06:57:28;97575.66;;;3.98;79.60
18275;BME280;19470;49.322;7.218;2024-01-15T06:59:55;97562.94;;;3.59;82.90
18275;BME280;19470;49.322;7.218;2024-01-15T07:02:21;97570.72;;;3.90;81.61
18275;BME280;19470;49.322;7.218;2024-01-15T07:04:48;97559.38;;;3.96;79.48
18275;BME280;19470;49.322;7.218;2024-01-15T07:07:14;97562.47;;;3.51;82.07
18275;BME280;19470;49.322;7.218;2024-01-15T07:09:41;97567.56;;;4.11;80.24
18275;BME280;19470;49.322;7.218;2024-01-15T07:12:07;97560.25;;;3.36;83.92
18275;BME280;19470;49.322;7.218;2024-01-15T07:14:35;97569.88;;;3.24;83.75
18275;BME280;19470;49.322;7.218;2024-01-15T07:17:05;97562.41;;;3.81;82.59
18275;BME280;19470;49.322;7.218;2024-01-15T07:19:31;97564.84;;;3.52;82.09
18275;BME280;19470;49.322;7.218;2024-01-15T07:21:58;97568.22;;;3.83;82.25
18275;BME280;19470;49.322;7.218;2024-01-15T07:24:25;97570.72;;;3.06;86.80
18275;BME280;19470;49.322;7.218;2024-01-15T07:26:51;97565.91;;;3.63;82.82
18275;BME280;19470;49.322;7.218;2024-01-15T07:29:17;97554.44;;;4.46;80.52
18275;BME280;19470;49.322;7.218;2024-01-15T07:31:49;97562.59;;;4.33;79.91
18275;BME280;19470;49.322;7.218;2024-01-15T07:34:15;97546.47;;;3.94;81.98
18275;BME280;19470;49.322;7.218;2024-01-15T07:36:43;97558.34;;;4.08;81.77
18275;BME280;19470;49.322;7.218;2024-01-15T07:39:10;97573.34;;;3.90;82.44
18275;BME280;19470;49.322;7.218;2024-01-15T07:41:36;97567.13;;;4.14;81.42
18275;BME280;19470;49.322;7.218;2024-01-15T07:44:03;97576.16;;;3.76;83.50
18275;BME280;19470;49.322;7.218;2024-01-15T07:46:30;97568.81;;;4.08;82.87
18275;BME280;19470;49.322;7.218;2024-01-15T07:48:59;97572.03;;;4.10;79.58
18275;BME280;19470;49.322;7.218;2024-01-15T07:51:26;97576.16;;;3.76;82.91
18275;BME280;19470;49.322;7.218;2024-01-15T07:53:53;97578.19;;;4.40;80.51
18275;BME280;19470;49.322;7.218;2024-01-15T07:56:20;97572.03;;;4.10;81.50
18275;BME280;19470;49.322;7.218;2024-01-15T07:58:46;97578.13;;;4.75;78.58
18275;BME280;19470;49.322;7.218;2024-01-15T08:01:13;97567.25;;;4.43;78.04
18275;BME280;19470;49.322;7.218;2024-01-15T08:03:40;97572.91;;;4.28;78.32
18275;BME280;19470;49.322;7.218;2024-01-15T08:06:08;97573.38;;;4.48;78.55
18275;BME280;19470;49.322;7.218;2024-01-15T08:08:35;97576.00;;;4.36;80.06
18275;BME280;19470;49.322;7.218;2024-01-15T08:11:01;97570.44;;;4.56;79.25
18275;BME280;19470;49.322;7.218;2024-01-15T08:13:28;97573.06;;;4.33;93.00
18275;BME280;19470;49.322;7.218;2024-01-15T08:15:56;97566.28;;;4.60;80.43
18275;BME280;19470;49.322;7.218;2024-01-15T08:18:22;97561.06;;;4.60;79.80
18275;BME280;19470;49.322;7.218;2024-01-15T08:20:49;97571.47;;;4.44;82.69
18275;BME280;19470;49.322;7.218;2024-01-15T08:23:18;97567.81;;;4.56;80.25
18275;BME280;19470;49.322;7.218;2024-01-15T08:25:45;97559.69;;;4.46;80.39
18275;BME280;19470;49.322;7.218;2024-01-15T08:28:11;97568.03;;;3.96;81.66
18275;BME280;19470;49.322;7.218;2024-01-15T08:30:38;97560.75;;;4.10;84.05
18275;BME280;19470;49.322;7.218;2024-01-15T08:33:04;97558.53;;;4.66;80.73
18275;BME280;19470;49.322;7.218;2024-01-15T08:35:31;97559.47;;;4.59;80.58
18275;BME280;19470;49.322;7.218;2024-01-15T08:37:57;97556.00;;;4.82;79.05
18275;BME280;19470;49.322;7.218;2024-01-15T08:40:26;97547.78;;;4.79;79.75
18275;BME280;19470;49.322;7.218;2024-01-15T08:42:52;97553.88;;;4.68;80.68
18275;BME280;19470;49.322;7.218;2024-01-15T08:45:18;97536.84;;;4.82;79.56
18275;BME280;19470;49.322;7.218;2024-01-15T08:47:47;97544.56;;;5.00;77.74
18275;BME280;19470;49.322;7.218;2024-01-15T08:50:13;97549.81;;;4.88;77.78
18275;BME280;19470;49.322;7.218;2024-01-15T08:52:40;97555.59;;;4.50;81.37
18275;BME280;19470;49.322;7.218;2024-01-15T08:55:07;97554.97;;;5.24;79.16
18275;BME280;19470;49.322;7.218;2024-01-15T08:57:35;97553.78;;;5.60;77.17
18275;BME280;19470;49.322;7.218;2024-01-15T09:00:01;97559.81;;;4.28;83.69
18275;BME280;19470;49.322;7.218;2024-01-15T09:02:28;97557.66;;;4.36;81.72
18275;BME280;19470;49.322;7.218;2024-01-15T09:04:55;97559.00;;;5.43;78.86
18275;BME280;19470;49.322;7.218;2024-01-15T09:07:21;97562.50;;;5.20;80.11
18275;BME280;19470;49.322;7.218;2024-01-15T09:09:49;97560.63;;;5.61;77.91
18275;BME280;19470;49.322;7.218;2024-01-15T09:12:16;97555.50;;;5.54;75.89
18275;BME280;19470;49.322;7.218;2024-01-15T09:14:45;97556.50;;;5.82;74.70
18275;BME280;19470;49.322;7.218;2024-01-15T09:17:11;97550.59;;;5.75;75.37
18275;BME280;19470;49.322;7.218;2024-01-15T09:19:38;97553.47;;;5.90;75.16
18275;BME280;19470;49.322;7.218;2024-01-15T09:22:05;97553.03;;;5.93;75.73
18275;BME280;19470;49.322;7.218;2024-01-15T09:24:31;97554.72;;;4.97;78.72
18275;BME280;19470;49.322;7.218;2024-01-15T09:26:58;97561.34;;;5.28;76.90
18275;BME280;19470;49.322;7.218;2024-01-15T09:29:25;97552.53;;;5.79;75.91
18275;BME280;19470;49.322;7.218;2024-01-15T09:31:52;97547.63;;;5.26;79.10
18275;BME280;19470;49.322;7.218;2024-01-15T09:34:19;97551.38;;;5.58;76.82
18275;BME280;19470;49.322;7.218;2024-01-15T09:36:45;97553.97;;;4.73;81.68
18275;BME280;19470;49.322;7.218;2024-01-15T09:39:12;97552.38;;;4.72;83.51
18275;BME280;19470;49.322;7.218;2024-01-15T09:41:41;97556.31;;;5.26;81.42
18275;BME280;19470;49.322;7.218;2024-01-15T09:44:08;97548.94;;;5.40;78.76
18275;BME280;19470;49.322;7.218;2024-01-15T09:46:34;97549.34;;;5.32;79.74
18275;BME280;19470;49.322;7.218;2024-01-15T09:49:02;97545.31;;;5.41;79.96
18275;BME280;19470;49.322;7.218;2024-01-15T09:51:31;97549.53;;;5.13;82.44
18275;BME280;19470;49.322;7.218;2024-01-15T09:53:58;97554.22;;;6.02;77.07
18275;BME280;19470;49.322;7.218;2024-01-15T09:56:24;97554.94;;;5.98;75.91
18275;BME280;19470;49.322;7.218;2024-01-15T09:58:51;97546.31;;;4.83;81.56
18275;BME280;19470;49.322;7.218;2024-01-15T10:01:19;97546.84;;;4.97;81.96
18275;BME280;19470;49.322;7.218;2024-01-15T10:03:46;97542.38;;;5.26;80.27
18275;BME280;19470;49.322;7.218;2024-01-15T10:06:16;97545.16;;;5.64;78.77
18275;BME280;19470;49.322;7.218;2024-01-15T10:08:47;97547.81;;;5.36;78.71
18275;BME280;19470;49.322;7.218;2024-01-15T10:11:14;97536.22;;;4.51;83.04
18275;BME280;19470;49.322;7.218;2024-01-15T10:13:42;97547.47;;;5.16;84.91
18275;BME280;19470;49.322;7.218;2024-01-15T10:16:09;97542.81;;;5.06;84.46
18275;BME280;19470;49.322;7.218;2024-01-15T10:18:36;97542.38;;;4.45;85.10
18275;BME280;19470;49.322;7.218;2024-01-15T10:21:06;97554.69;;;4.56;85.56
18275;BME280;19470;49.322;7.218;2024-01-15T10:23:34;97547.06;;;5.52;81.82
18275;BME280;19470;49.322;7.218;2024-01-15T10:26:01;97552.84;;;4.69;85.68
18275;BME280;19470;49.322;7.218;2024-01-15T10:28:29;97541.75;;;4.90;84.79
18275;BME280;19470;49.322;7.218;2024-01-15T10:30:58;97538.50;;;5.00;85.14
18275;BME280;19470;49.322;7.218;2024-01-15T10:33:25;97541.13;;;5.00;82.65
18275;BME280;19470;49.322;7.218;2024-01-15T10:35:53;97531.59;;;4.82;83.80
18275;BME280;19470;49.322;7.218;2024-01-15T10:38:21;97528.84;;;4.88;83.81
18275;BME280;19470;49.322;7.218;2024-01-15T10:40:50;97516.47;;;4.72;85.10
18275;BME280;19470;49.322;7.218;2024-01-15T10:43:17;97516.09;;;4.28;87.40
18275;BME280;19470;49.322;7.218;2024-01-15T10:45:44;97516.03;;;5.83;80.82
18275;BME280;19470;49.322;7.218;2024-01-15T10:48:12;97515.16;;;4.23;86.29
18275;BME280;19470;49.322;7.218;2024-01-15T10:50:41;97515.88;;;5.10;83.75
18275;BME280;19470;49.322;7.218;2024-01-15T10:53:08;97513.19;;;4.94;84.90
18275;BME280;19470;49.322;7.218;2024-01-15T10:55:37;97508.75;;;5.23;84.17
18275;BME280;19470;49.322;7.218;2024-01-15T10:58:06;97517.34;;;4.26;87.25
18275;BME280;19470;49.322;7.218;2024-01-15T11:00:36;97514.94;;;4.88;86.99
18275;BME280;19470;49.322;7.218;2024-01-15T11:03:04;97511.78;;;4.74;85.83
18275;BME280;19470;49.322;7.218;2024-01-15T11:05:33;97507.22;;;5.55;83.49
18275;BME280;19470;49.322;7.218;2024-01-15T11:08:01;97514.13;;;5.16;83.39
18275;BME280;19470;49.322;7.218;2024-01-15T11:10:41;97502.81;;;4.99;85.83
18275;BME280;19470;49.322;7.218;2024-01-15T11:13:10;97504.75;;;5.66;81.89
18275;BME280;19470;49.322;7.218;2024-01-15T11:15:59;97514.19;;;5.33;82.23
18275;BME280;19470;49.322;7.218;2024-01-15T11:18:27;97519.66;;;5.03;83.37
18275;BME280;19470;49.322;7.218;2024-01-15T11:21:24;97515.53;;;4.78;85.76
18275;BME280;19470;49.322;7.218;2024-01-15T11:23:54;97522.50;;;4.73;86.58
18275;BME280;19470;49.322;7.218;2024-01-15T11:26:30;97516.06;;;5.66;81.70
18275;BME280;19470;49.322;7.218;2024-01-15T11:28:59;97526.69;;;5.43;83.38
18275;BME280;19470;49.322;7.218;2024-01-15T11:31:27;97532.06;;;5.36;82.85
18275;BME280;19470;49.322;7.218;2024-01-15T11:33:54;97538.81;;;5.03;83.70
18275;BME280;19470;49.322;7.218;2024-01-15T11:36:21;97532.94;;;4.96;83.13
18275;BME280;19470;49.322;7.218;2024-01-15T11:38:47;97525.03;;;4.56;86.05
18275;BME280;19470;49.322;7.218;2024-01-15T11:41:14;97529.97;;;5.21;82.86
18275;BME280;19470;49.322;7.218;2024-01-15T11:43:41;97531.44;;;5.00;85.16
18275;BME280;19470;49.322;7.218;2024-01-15T11:46:11;97526.06;;;5.52;82.47
18275;BME280;19470;49.322;7.218;2024-01-15T11:48:43;97534.34;;;5.16;82.91
18275;BME280;19470;49.322;7.218;2024-01-15T11:51:11;97526.28;;;5.05;85.57
18275;BME280;19470;49.322;7.218;2024-01-15T11:53:43;97542.09;;;5.39;82.86
18275;BME280;19470;49.322;7.218;2024-01-15T11:56:14;97533.06;;;5.63;82.17
18275;BME280;19470;49.322;7.218;2024-01-15T11:58:42;97536.66;;;4.60;85.75
18275;BME280;19470;49.322;7.218;2024-01-15T12:01:11;97541.16;;;5.45;81.63
18275;BME280;19470;49.322;7.218;2024-01-15T12:03:38;97546.50;;;5.22;84.88
18275;BME280;19470;49.322;7.218;2024-01-15T12:06:05;97534.31;;;4.87;85.44
18275;BME280;19470;49.322;7.218;2024-01-15T12:08:33;97544.56;;;5.29;82.65
18275;BME280;19470;49.322;7.218;2024-01-15T12:11:00;97540.91;;;5.01;81.66
18275;BME280;19470;49.322;7.218;2024-01-15T12:13:27;97562.44;;;5.03;84.35
18275;BME280;19470;49.322;7.218;2024-01-15T12:15:54;97543.53;;;5.30;81.71
18275;BME280;19470;49.322;7.218;2024-01-15T12:18:22;97547.03;;;5.35;83.27
18275;BME280;19470;49.322;7.218;2024-01-15T12:20:49;97543.53;;;5.30;82.67
18275;BME280;19470;49.322;7.218;2024-01-15T12:23:15;97544.81;;;4.87;84.31
18275;BME280;19470;49.322;7.218;2024-01-15T12:25:44;97539.50;;;5.10;82.86
18275;BME280;19470;49.322;7.218;2024-01-15T12:28:12;97542.78;;;5.46;82.65
18275;BME280;19470;49.322;7.218;2024-01-15T12:30:39;97551.38;;;5.58;82.30
18275;BME280;19470;49.322;7.218;2024-01-15T12:33:07;97545.34;;;5.29;82.67
18275;BME280;19470;49.322;7.218;2024-01-15T12:35:35;97552.44;;;5.46;79.49
18275;BME280;19470;49.322;7.218;2024-01-15T12:38:02;97553.72;;;5.88;79.00
18275;BME280;19470;49.322;7.218;2024-01-15T12:40:30;97567.28;;;5.52;81.09
18275;BME280;19470;49.322;7.218;2024-01-15T12:42:56;97552.22;;;5.93;79.43
18275;BME280;19470;49.322;7.218;2024-01-15T12:45:23;97566.78;;;5.38;79.45
18275;BME280;19470;49.322;7.218;2024-01-15T12:47:50;97564.53;;;5.30;80.82
18275;BME280;19470;49.322;7.218;2024-01-15T12:50:17;97559.72;;;5.27;80.51
18275;BME280;19470;49.322;7.218;2024-01-15T12:52:45;97549.47;;;5.71;78.93
18275;BME280;19470;49.322;7.218;2024-01-15T12:55:11;97545.91;;;5.31;78.45
18275;BME280;19470;49.322;7.218;2024-01-15T12:57:38;97562.78;;;5.81;77.69
18275;BME280;19470;49.322;7.218;2024-01-15T13:00:06;97551.88;;;5.89;75.65
18275;BME280;19470;49.322;7.218;2024-01-15T13:02:37;97557.75;;;5.62;77.03
18275;BME280;19470;49.322;7.218;2024-01-15T13:05:04;97551.09;;;5.88;75.99
18275;BME280;19470;49.322;7.218;2024-01-15T13:07:32;97547.69;;;5.43;76.61
18275;BME280;19470;49.322;7.218;2024-01-15T13:10:00;97549.44;;;5.99;76.19